Time;durP1;ratioP1;P1;durP2;ratioP2;P2;SDS_P1;SDS_P2;PMS_P1;PMS_P2;Temp;Humidity;BMP_temperature;BMP_pressure;BME280_temperature;BME280_humidity;BME280_pressure;Samples;Min_cycle;Max_cycle;Signal;HPM_P1;HPM_P2
2023/01/08 00:01:09;;;;;;;4.30;2.88;;;;;;;;;;4534669;28;20560;-64
2023/01/08 00:03:36;;;;;;;6.05;2.95;;;;;;;;;;4529257;28;20458;-64
2023/01/08 00:06:03;;;;;;;4.10;2.90;;;;;;;;;;4540936;28;20783;-63
2023/01/08 00:08:29;;;;;;;4.57;2.88;;;;;;;;;;4563598;28;20546;-63
2023/01/08 00:10:55;;;;;;;4.18;2.67;;;;;;;;;;4531883;28;20832;-64
2023/01/08 00:13:21;;;;;;;4.50;3.30;;;;;;;;;;4541528;28;20414;-63
2023/01/08 00:15:47;;;;;;;3.95;2.92;;;;;;;;;;4549608;28;20568;-63
2023/01/08 00:18:13;;;;;;;4.35;2.95;;;;;;;;;;4552775;28;21021;-64
2023/01/08 00:20:43;;;;;;;5.63;3.13;;;;;;;;;;4569073;28;20353;-64
2023/01/08 00:23:17;;;;;;;3.08;2.60;;;;;;;;;;4519392;28;20412;-64
2023/01/08 00:25:43;;;;;;;6.20;3.28;;;;;;;;;;4535877;28;20592;-64
2023/01/08 00:28:09;;;;;;;5.35;3.28;;;;;;;;;;4543304;28;20502;-64
2023/01/08 00:30:36;;;;;;;6.03;3.25;;;;;;;;;;4535068;28;20600;-64
2023/01/08 00:33:02;;;;;;;5.82;2.70;;;;;;;;;;4539469;28;20958;-64
2023/01/08 00:35:28;;;;;;;5.03;2.92;;;;;;;;;;4539203;28;20673;-63
2023/01/08 00:37:54;;;;;;;5.30;3.28;;;;;;;;;;4542139;28;20627;-63
2023/01/08 00:40:20;;;;;;;2.67;2.40;;;;;;;;;;4546396;28;20723;-63
2023/01/08 00:42:47;;;;;;;4.88;2.58;;;;;;;;;;4544173;28;20657;-66
2023/01/08 00:45:13;;;;;;;4.82;2.50;;;;;;;;;;4537203;28;20722;-63
2023/01/08 00:47:39;;;;;;;3.33;2.15;;;;;;;;;;4540415;28;20598;-63
2023/01/08 00:50:05;;;;;;;4.18;2.10;;;;;;;;;;4539304;28;20891;-63
2023/01/08 00:52:31;;;;;;;3.45;2.20;;;;;;;;;;4540113;28;20674;-64
2023/01/08 00:54:57;;;;;;;5.93;2.63;;;;;;;;;;4538176;28;20697;-63
2023/01/08 00:57:23;;;;;;;4.28;2.80;;;;;;;;;;4542774;28;20595;-64
2023/01/08 00:59:49;;;;;;;4.53;2.55;;;;;;;;;;4547089;28;21024;-64
2023/01/08 01:02:15;;;;;;;5.18;2.78;;;;;;;;;;4537189;28;20501;-63
2023/01/08 01:04:41;;;;;;;4.78;2.85;;;;;;;;;;4523410;28;20619;-64
2023/01/08 01:07:07;;;;;;;6.90;3.35;;;;;;;;;;4566443;28;20570;-64
2023/01/08 01:09:33;;;;;;;7.70;3.13;;;;;;;;;;4540934;28;20638;-63
2023/01/08 01:11:59;;;;;;;3.70;2.60;;;;;;;;;;4547783;28;20583;-64
2023/01/08 01:14:25;;;;;;;6.15;2.70;;;;;;;;;;4538380;28;21017;-64
2023/01/08 01:16:51;;;;;;;3.28;2.85;;;;;;;;;;4524720;28;20546;-64
2023/01/08 01:19:17;;;;;;;7.35;2.95;;;;;;;;;;4524522;28;20687;-64
2023/01/08 01:21:43;;;;;;;4.55;2.20;;;;;;;;;;4523508;28;20732;-65
2023/01/08 01:24:11;;;;;;;3.75;2.60;;;;;;;;;;4539907;28;20523;-65
2023/01/08 01:26:37;;;;;;;6.05;2.35;;;;;;;;;;4545841;28;20689;-64
2023/01/08 01:29:03;;;;;;;4.10;1.95;;;;;;;;;;4530937;28;20738;-64
2023/01/08 01:31:30;;;;;;;6.05;2.53;;;;;;;;;;4545425;28;20451;-65
2023/01/08 01:33:57;;;;;;;7.72;1.95;;;;;;;;;;4541079;28;20746;-64
2023/01/08 01:36:23;;;;;;;3.55;2.00;;;;;;;;;;4547632;28;20462;-64
2023/01/08 01:38:50;;;;;;;7.45;1.90;;;;;;;;;;4538412;28;21070;-64
2023/01/08 01:41:29;;;;;;;6.68;1.98;;;;;;;;;;4543827;28;20647;-64
2023/01/08 01:43:56;;;;;;;6.53;2.00;;;;;;;;;;4541958;28;20946;-63
2023/01/08 01:46:22;;;;;;;4.57;1.88;;;;;;;;;;4538239;28;20817;-64
2023/01/08 01:48:49;;;;;;;9.25;2.03;;;;;;;;;;4543154;28;20740;-64
2023/01/08 01:51:15;;;;;;;6.50;1.92;;;;;;;;;;4549967;28;21016;-64
2023/01/08 01:53:41;;;;;;;6.15;1.48;;;;;;;;;;4542162;28;20399;-63
2023/01/08 01:56:07;;;;;;;8.80;2.35;;;;;;;;;;4544366;28;20602;-63
2023/01/08 01:58:33;;;;;;;13.35;2.97;;;;;;;;;;4550520;28;20599;-63
2023/01/08 02:01:03;;;;;;;3.72;1.98;;;;;;;;;;4545458;28;20644;-64
2023/01/08 02:03:30;;;;;;;8.02;1.92;;;;;;;;;;4541960;28;20895;-64
2023/01/08 02:05:56;;;;;;;9.45;1.70;;;;;;;;;;4542052;28;20500;-64
2023/01/08 02:08:25;;;;;;;10.75;2.15;;;;;;;;;;4538218;28;20670;-65
2023/01/08 02:10:53;;;;;;;11.82;2.63;;;;;;;;;;4538532;28;20492;-63
2023/01/08 02:13:22;;;;;;;14.15;2.60;;;;;;;;;;4536779;28;20705;-63
2023/01/08 02:16:00;;;;;;;6.95;2.40;;;;;;;;;;4526842;28;21209;-65
2023/01/08 02:18:40;;;;;;;9.40;3.08;;;;;;;;;;4549108;28;20438;-63
2023/01/08 02:21:12;;;;;;;11.75;2.17;;;;;;;;;;4524783;28;20807;-64
2023/01/08 02:23:44;;;;;;;11.90;3.08;;;;;;;;;;4577183;28;20471;-63
2023/01/08 02:26:16;;;;;;;7.03;2.05;;;;;;;;;;4542790;28;20508;-64
2023/01/08 02:28:49;;;;;;;10.40;2.30;;;;;;;;;;4581216;28;20574;-64
2023/01/08 02:31:15;;;;;;;4.88;1.83;;;;;;;;;;4550751;28;20450;-63
2023/01/08 02:33:41;;;;;;;9.38;2.03;;;;;;;;;;4560735;28;20637;-64
2023/01/08 02:36:17;;;;;;;12.73;3.05;;;;;;;;;;4531164;28;20573;-64
2023/01/08 02:38:43;;;;;;;;;;;;;;;;;;4541313;28;20472;-64
2023/01/08 02:41:10;;;;;;;11.02;2.45;;;;;;;;;;4527199;28;20445;-63
2023/01/08 02:43:47;;;;;;;10.00;2.10;;;;;;;;;;4535896;28;20614;-64
2023/01/08 02:46:26;;;;;;;9.82;1.73;;;;;;;;;;4526724;28;21044;-63
2023/01/08 02:48:54;;;;;;;8.35;2.53;;;;;;;;;;4511905;28;20557;-63
2023/01/08 02:51:35;;;;;;;7.85;2.15;;;;;;;;;;4529534;28;20444;-65
2023/01/08 02:54:03;;;;;;;12.52;3.17;;;;;;;;;;4548722;28;20452;-63
2023/01/08 02:56:32;;;;;;;11.63;3.60;;;;;;;;;;4562612;28;20458;-64
2023/01/08 02:58:59;;;;;;;7.90;2.28;;;;;;;;;;4563675;28;20654;-63
2023/01/08 03:01:26;;;;;;;8.63;2.65;;;;;;;;;;4530540;28;20933;-64
2023/01/08 03:03:55;;;;;;;6.88;1.88;;;;;;;;;;4536975;28;20990;-64
2023/01/08 03:06:22;;;;;;;8.13;3.20;;;;;;;;;;4559976;28;20478;-63
2023/01/08 03:08:49;;;;;;;9.23;2.15;;;;;;;;;;4546088;28;20544;-63
2023/01/08 03:11:17;;;;;;;5.70;1.95;;;;;;;;;;4527559;28;20595;-63
2023/01/08 03:13:43;;;;;;;7.68;2.65;;;;;;;;;;4545711;28;20786;-63
2023/01/08 03:16:11;;;;;;;13.73;2.25;;;;;;;;;;4531232;28;20968;-63
2023/01/08 03:18:40;;;;;;;8.23;1.90;;;;;;;;;;4545323;28;20465;-63
2023/01/08 03:21:07;;;;;;;5.40;1.75;;;;;;;;;;4537571;28;20906;-63
2023/01/08 03:23:34;;;;;;;7.10;2.22;;;;;;;;;;4565806;28;20667;-63
2023/01/08 03:26:01;;;;;;;6.47;2.35;;;;;;;;;;4545512;28;20464;-63
2023/01/08 03:28:33;;;;;;;8.02;2.25;;;;;;;;;;4546587;28;20517;-63
2023/01/08 03:30:59;;;;;;;5.35;2.08;;;;;;;;;;4550643;28;20627;-63
2023/01/08 03:33:25;;;;;;;4.53;2.08;;;;;;;;;;4557825;28;20495;-63
2023/01/08 03:35:53;;;;;;;5.90;2.67;;;;;;;;;;4568213;28;20434;-64
2023/01/08 03:38:25;;;;;;;13.50;3.55;;;;;;;;;;4541334;28;20546;-63
2023/01/08 03:40:53;;;;;;;5.47;2.75;;;;;;;;;;4533399;28;20899;-63
2023/01/08 03:43:19;;;;;;;5.75;2.55;;;;;;;;;;4536063;28;21051;-64
2023/01/08 03:45:49;;;;;;;8.20;2.53;;;;;;;;;;4545966;28;21061;-63
2023/01/08 03:48:15;;;;;;;8.27;2.63;;;;;;;;;;4546168;28;21005;-64
2023/01/08 03:50:41;;;;;;;4.60;2.42;;;;;;;;;;4548915;28;20943;-63
2023/01/08 03:53:08;;;;;;;5.57;2.35;;;;;;;;;;4558125;28;20501;-63
2023/01/08 03:55:34;;;;;;;4.20;2.70;;;;;;;;;;4543572;28;20520;-63
2023/01/08 03:58:00;;;;;;;5.63;2.28;;;;;;;;;;4549262;28;21052;-63
2023/01/08 04:00:26;;;;;;;5.68;2.75;;;;;;;;;;4536341;28;20398;-63
2023/01/08 04:02:52;;;;;;;8.48;3.10;;;;;;;;;;4547835;28;21024;-64
2023/01/08 04:05:18;;;;;;;5.75;2.53;;;;;;;;;;4555134;28;20603;-63
2023/01/08 04:07:44;;;;;;;5.93;2.50;;;;;;;;;;4553438;28;20512;-63
2023/01/08 04:10:10;;;;;;;4.95;2.58;;;;;;;;;;4546482;28;20558;-63
2023/01/08 04:12:36;;;;;;;9.05;2.80;;;;;;;;;;4531465;28;21004;-63
2023/01/08 04:15:02;;;;;;;8.68;3.25;;;;;;;;;;4556998;28;20744;-63
2023/01/08 04:17:28;;;;;;;4.97;2.72;;;;;;;;;;4516883;28;20579;-63
2023/01/08 04:19:54;;;;;;;7.13;3.13;;;;;;;;;;4561422;28;20981;-63
2023/01/08 04:22:20;;;;;;;5.20;2.38;;;;;;;;;;4564192;28;20510;-64
2023/01/08 04:24:46;;;;;;;6.32;2.40;;;;;;;;;;4547811;28;20430;-62
2023/01/08 04:27:12;;;;;;;9.07;2.42;;;;;;;;;;4551622;28;21174;-64
2023/01/08 04:29:38;;;;;;;7.05;3.30;;;;;;;;;;4550695;28;20428;-63
2023/01/08 04:32:04;;;;;;;4.30;2.60;;;;;;;;;;4552419;28;21332;-63
2023/01/08 04:34:30;;;;;;;6.35;2.63;;;;;;;;;;4552278;28;20448;-63
2023/01/08 04:36:56;;;;;;;6.70;3.15;;;;;;;;;;4547995;28;20509;-63
2023/01/08 04:39:22;;;;;;;3.50;2.35;;;;;;;;;;4557132;28;20755;-63
2023/01/08 04:41:48;;;;;;;5.65;2.55;;;;;;;;;;4549552;28;20545;-63
2023/01/08 04:44:14;;;;;;;6.20;2.45;;;;;;;;;;4551937;28;20706;-63
2023/01/08 04:46:40;;;;;;;4.07;2.20;;;;;;;;;;4540394;28;20605;-64
2023/01/08 04:49:06;;;;;;;5.40;2.60;;;;;;;;;;4546939;28;21174;-64
2023/01/08 04:51:32;;;;;;;5.85;2.72;;;;;;;;;;4552286;28;20363;-63
2023/01/08 04:53:58;;;;;;;3.33;2.30;;;;;;;;;;4524286;28;20547;-63
2023/01/08 04:56:24;;;;;;;4.68;2.28;;;;;;;;;;4537902;28;20554;-63
2023/01/08 04:58:51;;;;;;;5.07;2.38;;;;;;;;;;4529459;28;20504;-63
2023/01/08 05:01:21;;;;;;;4.78;2.38;;;;;;;;;;4535694;28;20399;-64
2023/01/08 05:03:47;;;;;;;5.18;1.83;;;;;;;;;;4511215;28;20859;-63
2023/01/08 05:06:13;;;;;;;4.75;2.10;;;;;;;;;;4518156;28;20620;-63
2023/01/08 05:08:39;;;;;;;4.47;1.90;;;;;;;;;;4530194;28;21107;-64
2023/01/08 05:11:05;;;;;;;7.38;2.53;;;;;;;;;;4523001;28;20545;-63
2023/01/08 05:13:31;;;;;;;4.78;2.35;;;;;;;;;;4546607;28;20657;-63
2023/01/08 05:16:01;;;;;;;6.32;2.08;;;;;;;;;;4525002;28;20702;-64
2023/01/08 05:18:27;;;;;;;5.88;2.00;;;;;;;;;;4528562;28;20809;-64
2023/01/08 05:20:54;;;;;;;5.53;2.10;;;;;;;;;;4527183;28;21041;-63
2023/01/08 05:23:19;;;;;;;4.55;2.28;;;;;;;;;;4522959;28;20677;-63
2023/01/08 05:25:46;;;;;;;2.97;1.75;;;;;;;;;;4520671;28;20449;-63
2023/01/08 05:28:11;;;;;;;8.20;1.98;;;;;;;;;;4521243;28;21158;-63
2023/01/08 05:30:37;;;;;;;3.55;1.95;;;;;;;;;;4523087;28;20728;-63
2023/01/08 05:33:04;;;;;;;8.60;2.00;;;;;;;;;;4535260;28;20671;-63
2023/01/08 05:35:29;;;;;;;6.65;2.33;;;;;;;;;;4525122;28;20422;-64
2023/01/08 05:37:55;;;;;;;3.72;1.90;;;;;;;;;;4512826;28;20552;-63
2023/01/08 05:40:21;;;;;;;5.47;2.33;;;;;;;;;;4541283;28;20638;-63
2023/01/08 05:42:47;;;;;;;4.05;2.40;;;;;;;;;;4524143;28;20622;-64
2023/01/08 05:45:15;;;;;;;4.93;2.35;;;;;;;;;;4525151;28;20618;-63
2023/01/08 05:47:41;;;;;;;4.70;2.50;;;;;;;;;;4527517;28;21043;-64
2023/01/08 05:50:07;;;;;;;3.78;2.38;;;;;;;;;;4518798;28;21142;-64
2023/01/08 05:52:33;;;;;;;4.45;3.15;;;;;;;;;;4521454;28;20611;-63
2023/01/08 05:54:59;;;;;;;3.75;2.28;;;;;;;;;;4528649;28;20549;-64
2023/01/08 05:57:26;;;;;;;6.70;2.83;;;;;;;;;;4507098;28;20739;-65
2023/01/08 05:59:51;;;;;;;6.63;2.63;;;;;;;;;;4523857;28;20590;-64
2023/01/08 06:02:17;;;;;;;6.15;2.90;;;;;;;;;;4514959;28;21026;-63
2023/01/08 06:04:43;;;;;;;5.40;2.47;;;;;;;;;;4511166;28;20435;-64
2023/01/08 06:07:09;;;;;;;5.65;2.30;;;;;;;;;;4525538;28;20520;-63
2023/01/08 06:09:35;;;;;;;5.10;2.30;;;;;;;;;;4505722;28;21199;-63
2023/01/08 06:12:01;;;;;;;4.93;2.50;;;;;;;;;;4528762;28;20642;-63
2023/01/08 06:14:27;;;;;;;5.25;2.38;;;;;;;;;;4542614;28;20518;-63
2023/01/08 06:16:53;;;;;;;6.60;2.40;;;;;;;;;;4525192;28;21033;-63
2023/01/08 06:19:19;;;;;;;5.93;2.20;;;;;;;;;;4519096;28;20926;-64
2023/01/08 06:21:45;;;;;;;6.85;2.30;;;;;;;;;;4543506;28;21097;-63
2023/01/08 06:24:11;;;;;;;5.53;2.63;;;;;;;;;;4531256;28;20752;-64
2023/01/08 06:26:37;;;;;;;7.88;3.17;;;;;;;;;;4532932;28;21035;-63
2023/01/08 06:29:03;;;;;;;5.93;2.40;;;;;;;;;;4522900;28;20476;-63
2023/01/08 06:31:29;;;;;;;5.82;2.97;;;;;;;;;;4538755;28;20088;-63
2023/01/08 06:33:55;;;;;;;6.80;2.55;;;;;;;;;;4529514;28;20558;-63
2023/01/08 06:36:21;;;;;;;5.85;2.70;;;;;;;;;;4533306;28;20616;-63
2023/01/08 06:38:47;;;;;;;4.70;2.25;;;;;;;;;;4529904;28;20541;-63
2023/01/08 06:41:13;;;;;;;4.80;2.28;;;;;;;;;;4518894;28;20611;-63
2023/01/08 06:43:39;;;;;;;6.35;2.45;;;;;;;;;;4563655;28;20561;-63
2023/01/08 06:46:07;;;;;;;4.75;2.17;;;;;;;;;;4538360;28;20732;-64
2023/01/08 06:48:33;;;;;;;9.30;2.42;;;;;;;;;;4536611;28;20533;-63
2023/01/08 06:50:59;;;;;;;6.60;2.10;;;;;;;;;;4529745;28;20696;-63
2023/01/08 06:53:25;;;;;;;6.97;2.33;;;;;;;;;;4523909;28;20718;-63
2023/01/08 06:55:55;;;;;;;9.40;2.28;;;;;;;;;;4521807;28;21011;-63
2023/01/08 06:58:22;;;;;;;5.47;2.10;;;;;;;;;;4521528;28;20683;-63
2023/01/08 07:00:48;;;;;;;5.68;2.38;;;;;;;;;;4521782;28;20612;-63
2023/01/08 07:03:14;;;;;;;5.95;2.03;;;;;;;;;;4524902;28;20751;-63
2023/01/08 07:05:40;;;;;;;10.65;2.38;;;;;;;;;;4565230;28;20588;-63
2023/01/08 07:08:09;;;;;;;9.70;2.25;;;;;;;;;;4527871;28;20494;-64
2023/01/08 07:10:35;;;;;;;4.38;1.63;;;;;;;;;;4505711;28;20534;-63
2023/01/08 07:13:01;;;;;;;9.23;2.15;;;;;;;;;;4527630;28;20537;-63
2023/01/08 07:15:27;;;;;;;6.78;1.90;;;;;;;;;;4560744;28;20424;-64
2023/01/08 07:17:53;;;;;;;7.47;2.95;;;;;;;;;;4528465;28;20529;-63
2023/01/08 07:20:19;;;;;;;9.00;2.97;;;;;;;;;;4518893;28;21061;-64
2023/01/08 07:22:45;;;;;;;9.70;3.15;;;;;;;;;;4503969;28;20760;-63
2023/01/08 07:25:11;;;;;;;6.57;3.10;;;;;;;;;;4516435;28;20623;-63
2023/01/08 07:27:37;;;;;;;9.20;3.33;;;;;;;;;;4524471;28;20562;-63
2023/01/08 07:30:03;;;;;;;8.63;2.80;;;;;;;;;;4548874;28;20732;-63
2023/01/08 07:32:29;;;;;;;7.20;2.22;;;;;;;;;;4526676;28;20525;-63
2023/01/08 07:34:58;;;;;;;7.68;2.50;;;;;;;;;;4523720;28;20549;-64
2023/01/08 07:37:24;;;;;;;5.60;3.42;;;;;;;;;;4523890;28;20603;-64
2023/01/08 07:39:51;;;;;;;7.63;2.65;;;;;;;;;;4517255;28;20720;-63
2023/01/08 07:42:17;;;;;;;8.60;3.22;;;;;;;;;;4525799;28;20564;-63
2023/01/08 07:44:43;;;;;;;7.82;2.53;;;;;;;;;;4514558;28;20576;-63
2023/01/08 07:47:09;;;;;;;9.50;4.13;;;;;;;;;;4526577;28;20933;-63
2023/01/08 07:49:35;;;;;;;11.93;3.58;;;;;;;;;;4513410;28;20766;-63
2023/01/08 07:52:01;;;;;;;9.27;2.60;;;;;;;;;;4516960;28;20049;-63
2023/01/08 07:54:27;;;;;;;5.97;2.72;;;;;;;;;;4521039;28;20559;-62
2023/01/08 07:56:54;;;;;;;5.13;2.17;;;;;;;;;;4529782;28;20442;-62
2023/01/08 07:59:20;;;;;;;10.77;2.50;;;;;;;;;;4515440;28;20681;-62
2023/01/08 08:01:45;;;;;;;6.38;2.25;;;;;;;;;;4526351;28;21105;-63
2023/01/08 08:04:14;;;;;;;10.63;2.17;;;;;;;;;;4529009;28;20580;-62
2023/01/08 08:06:40;;;;;;;11.00;2.45;;;;;;;;;;4537319;28;21047;-63
2023/01/08 08:09:06;;;;;;;6.35;2.35;;;;;;;;;;4524317;28;20566;-64
2023/01/08 08:11:32;;;;;;;5.55;2.05;;;;;;;;;;4531607;28;20537;-62
2023/01/08 08:13:58;;;;;;;7.38;2.15;;;;;;;;;;4521383;28;20637;-65
2023/01/08 08:16:24;;;;;;;5.75;1.90;;;;;;;;;;4519138;28;20617;-62
2023/01/08 08:18:50;;;;;;;6.15;2.13;;;;;;;;;;4518032;28;20504;-61
2023/01/08 08:21:16;;;;;;;6.55;2.50;;;;;;;;;;4516653;28;20480;-62
2023/01/08 08:23:42;;;;;;;8.70;1.85;;;;;;;;;;4531937;28;20873;-63
2023/01/08 08:26:08;;;;;;;6.68;2.08;;;;;;;;;;4568230;28;20596;-62
2023/01/08 08:28:34;;;;;;;8.02;2.10;;;;;;;;;;4523979;28;20628;-69
2023/01/08 08:31:00;;;;;;;3.67;2.22;;;;;;;;;;4515995;28;20737;-70
2023/01/08 08:33:26;;;;;;;3.25;2.33;;;;;;;;;;4532987;28;20585;-69
2023/01/08 08:35:52;;;;;;;9.85;2.30;;;;;;;;;;4525139;28;21090;-69
2023/01/08 08:38:18;;;;;;;8.57;2.33;;;;;;;;;;4554162;28;20511;-69
2023/01/08 08:40:44;;;;;;;5.78;2.10;;;;;;;;;;4535888;28;20449;-69
2023/01/08 08:43:10;;;;;;;6.97;2.20;;;;;;;;;;4529658;28;20958;-66
2023/01/08 08:45:36;;;;;;;6.90;2.53;;;;;;;;;;4532634;28;20618;-66
2023/01/08 08:48:05;;;;;;;5.95;2.05;;;;;;;;;;4532777;28;21232;-68
2023/01/08 08:50:31;;;;;;;7.47;2.38;;;;;;;;;;4520276;28;20616;-65
2023/01/08 08:53:00;;;;;;;6.63;2.42;;;;;;;;;;4524488;28;20486;-68
2023/01/08 08:55:27;;;;;;;6.70;1.98;;;;;;;;;;4535949;28;20608;-66
2023/01/08 08:57:53;;;;;;;6.13;1.92;;;;;;;;;;4515837;28;20523;-68
2023/01/08 09:00:19;;;;;;;8.23;1.98;;;;;;;;;;4515824;28;21246;-67
2023/01/08 09:02:45;;;;;;;5.95;1.70;;;;;;;;;;4516494;28;20429;-68
2023/01/08 09:05:11;;;;;;;7.20;1.58;;;;;;;;;;4530575;28;20536;-67
2023/01/08 09:07:37;;;;;;;5.38;1.52;;;;;;;;;;4516185;28;20608;-65
2023/01/08 09:10:03;;;;;;;5.50;1.67;;;;;;;;;;4506709;28;20653;-66
2023/01/08 09:12:29;;;;;;;8.82;2.38;;;;;;;;;;4517412;28;20609;-66
2023/01/08 09:14:56;;;;;;;5.63;1.80;;;;;;;;;;4521305;28;21093;-66
2023/01/08 09:17:24;;;;;;;2.55;1.60;;;;;;;;;;4516967;28;20692;-68
2023/01/08 09:19:50;;;;;;;5.15;1.90;;;;;;;;;;4511199;28;21057;-69
2023/01/08 09:22:16;;;;;;;5.18;1.85;;;;;;;;;;4502911;28;20529;-68
2023/01/08 09:24:42;;;;;;;7.88;1.73;;;;;;;;;;4513711;28;20544;-67
2023/01/08 09:27:08;;;;;;;4.15;1.50;;;;;;;;;;4526207;28;20565;-67
2023/01/08 09:29:34;;;;;;;5.75;1.48;;;;;;;;;;4522653;28;20643;-67
2023/01/08 09:32:00;;;;;;;9.57;2.10;;;;;;;;;;4535105;28;20507;-67
2023/01/08 09:34:26;;;;;;;5.80;2.17;;;;;;;;;;4504373;28;20719;-68
2023/01/08 09:36:52;;;;;;;5.32;1.58;;;;;;;;;;4545433;28;20549;-68
2023/01/08 09:39:18;;;;;;;5.38;1.90;;;;;;;;;;4499699;28;20934;-68
2023/01/08 09:41:46;;;;;;;5.88;2.15;;;;;;;;;;4507233;28;21185;-66
2023/01/08 09:44:19;;;;;;;6.82;2.00;;;;;;;;;;4516957;28;20418;-68
2023/01/08 09:46:46;;;;;;;8.93;2.20;;;;;;;;;;4519763;28;20557;-70
2023/01/08 09:49:14;;;;;;;11.93;2.25;;;;;;;;;;4504523;28;20428;-68
2023/01/08 09:51:40;;;;;;;8.35;1.75;;;;;;;;;;4505818;28;21046;-67
2023/01/08 09:54:09;;;;;;;4.72;1.98;;;;;;;;;;4482636;28;20986;-65
2023/01/08 09:56:36;;;;;;;4.05;1.70;;;;;;;;;;4517883;28;20553;-67
2023/01/08 09:59:03;;;;;;;9.70;2.30;;;;;;;;;;4541722;28;20634;-68
2023/01/08 10:01:31;;;;;;;10.68;1.92;;;;;;;;;;4542212;28;20716;-69
2023/01/08 10:04:02;;;;;;;7.72;1.77;;;;;;;;;;4534640;28;20626;-67
2023/01/08 10:06:30;;;;;;;8.75;2.35;;;;;;;;;;4554877;28;21152;-68
2023/01/08 10:08:56;;;;;;;5.65;1.80;;;;;;;;;;4520515;28;20605;-68
2023/01/08 10:11:23;;;;;;;9.27;2.33;;;;;;;;;;4531729;28;20581;-68
2023/01/08 10:13:52;;;;;;;9.88;1.60;;;;;;;;;;4527886;28;20671;-68
2023/01/08 10:16:22;;;;;;;5.72;1.52;;;;;;;;;;4576230;28;20466;-69
2023/01/08 10:18:48;;;;;;;6.22;1.55;;;;;;;;;;4541431;28;20617;-69
2023/01/08 10:21:14;;;;;;;7.05;2.08;;;;;;;;;;4559868;28;20616;-68
2023/01/08 10:23:51;;;;;;;8.50;1.77;;;;;;;;;;4561779;28;20490;-67
2023/01/08 10:26:27;;;;;;;9.98;1.90;;;;;;;;;;4585413;28;20599;-67
2023/01/08 10:29:05;;;;;;;10.05;2.22;;;;;;;;;;4542686;28;21028;-67
2023/01/08 10:31:31;;;;;;;11.25;1.92;;;;;;;;;;4544543;28;20218;-66
2023/01/08 10:34:07;;;;;;;11.77;2.10;;;;;;;;;;4528986;28;20581;-67
2023/01/08 10:36:38;;;;;;;8.85;2.33;;;;;;;;;;4540347;28;20053;-67
2023/01/08 10:39:04;;;;;;;9.60;2.33;;;;;;;;;;4544320;28;20400;-67
2023/01/08 10:41:31;;;;;;;10.18;1.65;;;;;;;;;;4549318;28;20336;-67
2023/01/08 10:44:02;;;;;;;7.05;1.90;;;;;;;;;;4543588;28;20441;-69
2023/01/08 10:46:28;;;;;;;9.25;1.80;;;;;;;;;;4542026;28;21132;-69
2023/01/08 10:48:55;;;;;;;8.93;2.05;;;;;;;;;;4523924;28;20594;-68
2023/01/08 10:51:22;;;;;;;10.43;2.42;;;;;;;;;;4529606;28;20574;-68
2023/01/08 10:53:48;;;;;;;11.40;2.22;;;;;;;;;;4531174;28;21024;-69
2023/01/08 10:56:19;;;;;;;7.47;2.20;;;;;;;;;;4539893;28;20908;-69
2023/01/08 10:58:45;;;;;;;10.18;2.40;;;;;;;;;;4531113;28;20797;-69
2023/01/08 11:01:15;;;;;;;9.40;2.92;;;;;;;;;;4701727;28;20108;-68
2023/01/08 11:03:41;;;;;;;12.02;1.52;;;;;;;;;;4853689;28;20748;-69
2023/01/08 11:06:18;;;;;;;7.30;2.55;;;;;;;;;;4851704;28;20041;-68
2023/01/08 11:08:51;;;;;;;7.70;2.13;;;;;;;;;;4848468;28;20112;-69
2023/01/08 11:11:17;;;;;;;8.10;2.08;;;;;;;;;;4851517;28;20175;-68
2023/01/08 11:14:03;;;;;;;9.68;2.17;;;;;;;;;;4851285;28;20120;-68
2023/01/08 11:16:32;;;;;;;8.65;2.20;;;;;;;;;;4856655;28;20249;-69
2023/01/08 11:18:58;;;;;;;10.35;3.45;;;;;;;;;;4835564;28;20085;-70
2023/01/08 11:21:26;;;;;;;6.00;2.00;;;;;;;;;;4850193;28;20436;-69
2023/01/08 11:24:01;;;;;;;6.38;2.60;;;;;;;;;;4852867;28;20076;-69
2023/01/08 11:26:28;;;;;;;10.13;2.63;;;;;;;;;;4762751;28;20041;-67
2023/01/08 11:29:24;;;;;;;6.05;1.98;;;;;;;;;;4789063;28;20120;-67
2023/01/08 11:32:10;;;;;;;8.20;1.98;;;;;;;;;;4792841;28;20079;-66
2023/01/08 11:34:56;;;;;;;9.40;3.15;;;;;;;;;;4815507;28;20360;-66
2023/01/08 11:37:25;;;;;;;13.52;2.60;;;;;;;;;;4822319;28;20043;-67
2023/01/08 11:39:52;;;;;;;17.92;2.50;;;;;;;;;;4832232;28;20045;-67
2023/01/08 11:42:51;;;;;;;12.48;2.63;;;;;;;;;;4821636;28;20084;-67
2023/01/08 11:45:24;;;;;;;8.77;2.50;;;;;;;;;;4775418;28;20061;-66
2023/01/08 11:47:50;;;;;;;14.77;2.45;;;;;;;;;;4834377;28;20306;-66
2023/01/08 11:50:16;;;;;;;9.13;2.90;;;;;;;;;;4817239;28;20087;-65
2023/01/08 11:53:05;;;;;;;16.83;2.97;;;;;;;;;;4827708;28;20350;-62
2023/01/08 11:55:41;;;;;;;7.88;2.45;;;;;;;;;;4833727;28;20049;-65
2023/01/08 11:58:21;;;;;;;9.82;2.33;;;;;;;;;;4832951;28;20112;-65
2023/01/08 12:00:47;;;;;;;7.50;2.55;;;;;;;;;;4835567;28;20107;-64
2023/01/08 12:03:28;;;;;;;12.95;2.60;;;10.80;99.90;;;;;;4832086;28;20109;-64
2023/01/08 12:05:54;;;;;;;7.13;2.33;;;;;;;;;;4829041;28;20151;-64
2023/01/08 12:08:20;;;;;;;8.93;2.83;;;;;;;;;;4827580;28;20076;-64
2023/01/08 12:10:52;;;;;;;12.15;2.65;;;11.20;99.90;;;;;;4822424;28;20120;-67
2023/01/08 12:13:43;;;;;;;12.73;3.78;;;;;;;;;;4823043;28;20595;-65
2023/01/08 12:16:18;;;;;;;8.15;2.80;;;;;;;;;;4827056;28;20526;-63
2023/01/08 12:19:06;;;;;;;12.73;3.20;;;;;;;;;;4825910;28;20577;-69
2023/01/08 12:21:33;;;;;;;9.45;2.47;;;;;;;;;;4830715;28;20469;-69
2023/01/08 12:24:11;;;;;;;10.32;3.15;;;;;;;;;;4814209;28;20077;-69
2023/01/08 12:26:41;;;;;;;7.82;2.08;;;;;;;;;;4827702;28;20147;-70
2023/01/08 12:29:13;;;;;;;9.57;2.70;;;;;;;;;;4838777;28;20076;-64
2023/01/08 12:31:52;;;;;;;8.52;2.92;;;;;;;;;;4834558;28;20053;-61
2023/01/08 12:34:38;;;;;;;12.30;2.28;;;;;;;;;;4837819;28;20052;-61
2023/01/08 12:37:09;;;;;;;9.07;2.63;;;;;;;;;;4834417;28;20057;-60
2023/01/08 12:39:48;;;;;;;12.15;2.58;;;;;;;;;;4832451;28;20224;-64
2023/01/08 12:42:17;;;;;;;9.45;2.13;;;;;;;;;;4832430;28;20049;-68
2023/01/08 12:44:45;;;;;;;8.10;2.30;;;;;;;;;;4836402;28;20394;-70
2023/01/08 12:47:15;;;;;;;7.28;1.83;;;;;;;;;;4833296;28;20077;-65
2023/01/08 12:49:47;;;;;;;6.82;2.03;;;;;;;;;;4828689;28;20041;-62
2023/01/08 12:52:19;;;;;;;8.75;2.55;;;;;;;;;;4832569;28;20037;-63
2023/01/08 12:54:48;;;;;;;6.90;2.47;;;;;;;;;;4825285;28;20041;-64
2023/01/08 12:57:30;;;;;;;11.07;2.53;;;;;;;;;;4826004;28;20153;-59
2023/01/08 13:00:02;;;;;;;11.88;2.28;;;;;;;;;;4786602;28;20052;-62
2023/01/08 13:02:57;;;;;;;9.98;2.40;;;;;;;;;;4784167;28;20074;-63
2023/01/08 13:05:23;;;;;;;9.95;2.15;;;;;;;;;;4786875;28;20114;-65
2023/01/08 13:07:54;;;;;;;7.35;2.55;;;;;;;;;;4765643;28;20049;-66
2023/01/08 13:10:25;;;;;;;11.13;2.22;;;;;;;;;;4734335;28;20049;-64
2023/01/08 13:12:52;;;;;;;7.20;2.00;;;;;;;;;;4807294;28;21060;-68
2023/01/08 13:15:21;;;;;;;11.07;2.00;;;;;;;;;;4809526;28;20122;-65
2023/01/08 13:17:48;;;;;;;8.50;1.88;;;;;;;;;;4810155;28;20061;-63
2023/01/08 13:20:19;;;;;;;16.05;2.30;;;;;;;;;;4798681;28;20049;-63
2023/01/08 13:22:51;;;;;;;8.93;2.70;;;;;;;;;;4809103;28;20990;-66
2023/01/08 13:25:17;;;;;;;12.43;1.83;;;;;;;;;;4788490;28;20576;-66
2023/01/08 13:27:44;;;;;;;5.70;2.05;;;;;;;;;;4811756;28;20053;-65
2023/01/08 13:30:29;;;;;;;7.05;2.78;;;;;;;;;;4806377;28;20697;-65
2023/01/08 13:32:55;;;;;;;10.52;1.73;;;;;;;;;;4827618;28;20671;-65
2023/01/08 13:35:30;;;;;;;7.47;1.77;;;;;;;;;;4854250;28;20052;-66
2023/01/08 13:38:09;;;;;;;5.45;1.67;;;;;;;;;;4831098;28;20101;-65
2023/01/08 13:40:49;;;;;;;6.65;2.65;;;;;;;;;;4840581;28;20662;-65
2023/01/08 13:43:35;;;;;;;7.03;1.90;;;;;;;;;;4843480;28;20039;-65
2023/01/08 13:46:01;;;;;;;5.90;1.85;;;;;;;;;;4859338;28;20095;-65
2023/01/08 13:48:38;;;;;;;6.25;1.90;;;;;;;;;;4840182;28;20044;-65
2023/01/08 13:51:04;;;;;;;6.15;1.77;;;;;;;;;;4827715;28;20045;-63
2023/01/08 13:53:31;;;;;;;7.70;1.73;;;;;;;;;;4822388;28;20044;-62
2023/01/08 13:55:58;;;;;;;4.20;1.85;;;;;;;;;;4841319;28;20338;-62
2023/01/08 13:58:25;;;;;;;8.35;1.63;;;;;;;;;;4810217;28;20041;-64
2023/01/08 14:00:53;;;;;;;6.90;2.95;;;;;;;;;;4817348;28;20359;-63
2023/01/08 14:03:26;;;;;;;5.97;1.55;;;;;;;;;;4800505;28;20079;-66
2023/01/08 14:05:53;;;;;;;5.45;1.70;;;;;;;;;;4730112;28;20041;-67
2023/01/08 14:08:42;;;;;;;6.32;1.60;;;;;;;;;;4768642;28;20041;-62
2023/01/08 14:11:09;;;;;;;8.48;1.75;;;;;;;;;;4775930;28;20052;-63
2023/01/08 14:13:36;;;;;;;3.50;1.38;;;;;;;;;;4784339;28;20078;-62
2023/01/08 14:16:05;;;;;;;4.80;1.92;;;;;;;;;;4805922;28;20598;-62
2023/01/08 14:18:32;;;;;;;4.78;1.38;;;;;;;;;;4802728;28;20036;-62
2023/01/08 14:20:58;;;;;;;4.68;1.50;;;;;;;;;;4787911;28;20044;-62
2023/01/08 14:23:25;;;;;;;5.38;2.15;;;;;;;;;;4745803;28;20379;-62
2023/01/08 14:25:52;;;;;;;5.03;1.80;;;;;;;;;;4768330;28;20717;-63
2023/01/08 14:28:19;;;;;;;7.78;2.15;;;;;;;;;;4819121;28;20699;-62
2023/01/08 14:30:50;;;;;;;5.10;1.40;;;;;;;;;;4796324;28;20093;-62
2023/01/08 14:33:17;;;;;;;4.72;1.40;;;;;;;;;;4712430;28;20040;-67
2023/01/08 14:35:43;;;;;;;3.40;1.50;;;;;;;;;;4769072;28;20210;-67
2023/01/08 14:38:14;;;;;;;5.70;1.30;;;;;;;;;;4767162;28;20140;-67
2023/01/08 14:40:43;;;;;;;1.83;1.27;;;;;;;;;;4755781;28;20147;-67
2023/01/08 14:43:10;;;;;;;6.70;1.77;;;;;;;;;;4737192;28;20770;-67
2023/01/08 14:45:36;;;;;;;3.72;1.17;;;;;;;;;;4744233;28;20059;-66
2023/01/08 14:48:11;;;;;;;6.35;1.80;;;;;;;;;;4769796;28;20211;-67